EW2190 Narragansett RI US current weather conditions

sailwx.info

Wind from 190 at 6 knots gusting 13

Air temperature 9.4° C
Dewpoint 8.1° C

Last reported at 2019-Dec-11 02:00 UTC.
Time now 2019-Dec-11 02:29 UTC

Location: N 41°27' W 071°27'.
View on Google Maps.

See reports from other nearby stations

  
Tides and Currents Weather Stations Pressure Air Temp Water Temp Dewpoint Dewpoint Depression Visibility Wind Speed Wind Dir Waves Ship Positions
date/time (UTC)wind fromknots sea level pressurealtimeterstation pressurevisibilityair tempwater tempwave heightnotes
2019-Dec-11 02:00 190 6 gusting 13 9.4
2019-Dec-11 01:45 190 7 gusting 18 9.4
2019-Dec-11 01:33 190 11 gusting 25 11.7
2019-Dec-11 01:19 190 6 gusting 9 12.2
2019-Dec-11 01:04 190 5 gusting 7 11.7
2019-Dec-11 00:47 190 4 gusting 7 11.7
2019-Dec-11 00:32 190 4 gusting 10 11.7
2019-Dec-11 00:16 190 2 gusting 7 11.7
2019-Dec-11 00:01 190 3 gusting 6 11.7
2019-Dec-10 23:48 190 1 gusting 6 11.7
2019-Dec-10 23:32 190 1 gusting 6 11.7
2019-Dec-10 23:18 190 3 gusting 7 12.2
2019-Dec-10 23:01 190 5 gusting 10 12.2
2019-Dec-10 22:46 190 8 gusting 13 11.7
2019-Dec-10 22:31 190 6 gusting 13 11.7
2019-Dec-10 22:15 190 3 gusting 13 11.7
2019-Dec-10 22:02 190 3 gusting 8 11.7
2019-Dec-10 21:46 190 2 gusting 6 12.2
2019-Dec-10 21:32 190 1 gusting 9 12.2
2019-Dec-10 21:16 190 1 gusting 6 12.2
2019-Dec-10 21:01 190 0 gusting 6 12.2
2019-Dec-10 20:46 190 3 gusting 7 12.2
2019-Dec-10 20:31 190 4 gusting 7 12.2
2019-Dec-10 20:16 190 4 gusting 9 12.2
2019-Dec-10 20:02 190 5 gusting 10 12.2
2019-Dec-10 19:46 190 3 gusting 6 12.8
2019-Dec-10 19:31 190 1 gusting 6 12.8
2019-Dec-10 19:16 190 5 gusting 8 12.8
2019-Dec-10 19:01 190 3 gusting 11 12.8
2019-Dec-10 18:46 190 4 gusting 13 12.8
2019-Dec-10 18:31 190 7 gusting 18 12.8
2019-Dec-10 18:16 190 6 gusting 13 12.8
2019-Dec-10 18:00 190 5 gusting 13 12.8
2019-Dec-10 17:46 190 6 gusting 14 12.8
2019-Dec-10 17:31 190 4 gusting 10 13.3
2019-Dec-10 17:15 190 5 gusting 11 12.8
2019-Dec-10 17:00 190 5 gusting 14 12.8
2019-Dec-10 16:45 190 6 gusting 13 12.8
2019-Dec-10 16:30 190 6 gusting 13 12.8
2019-Dec-10 16:15 190 5 gusting 11 12.8
2019-Dec-10 16:00 190 7 gusting 12 13.3
2019-Dec-10 15:45 190 7 gusting 13 13.3
2019-Dec-10 15:30 190 6 gusting 14 13.3
2019-Dec-10 15:15 190 7 gusting 13 13.3
2019-Dec-10 15:00 190 7 gusting 15 13.3
2019-Dec-10 14:46 190 6 gusting 14 13.3
2019-Dec-10 14:34 190 4 gusting 12 12.8
2019-Dec-10 14:17 190 4 gusting 13 12.8
2019-Dec-10 14:02 190 5 gusting 9 12.8
2019-Dec-10 13:47 190 3 gusting 9 12.8
2019-Dec-10 13:33 190 6 gusting 10 12.8
2019-Dec-10 13:17 190 4 gusting 10 12.2
2019-Dec-10 13:01 190 4 gusting 13 12.2
2019-Dec-10 12:47 190 6 gusting 11 12.2
2019-Dec-10 12:32 190 4 gusting 9 12.2
2019-Dec-10 12:16 190 3 gusting 8 11.7
2019-Dec-10 12:03 190 4 gusting 9 12.2
2019-Dec-10 11:46 190 4 gusting 11 12.2
2019-Dec-10 11:32 190 3 gusting 10 12.2
2019-Dec-10 11:16 190 5 gusting 10 12.2
2019-Dec-10 11:01 190 4 gusting 7 12.2
2019-Dec-10 10:46 190 4 gusting 9 12.2
2019-Dec-10 10:31 190 4 gusting 8 12.2
2019-Dec-10 10:16 190 2 gusting 8 12.2
2019-Dec-10 10:02 190 3 gusting 6 12.2
2019-Dec-10 09:46 190 2 gusting 7 12.2
2019-Dec-10 09:30 190 4 gusting 11 12.2
2019-Dec-10 09:15 190 3 gusting 11 12.8
2019-Dec-10 09:00 190 6 gusting 13 12.8
2019-Dec-10 08:45 190 5 gusting 14 12.8
2019-Dec-10 08:31 190 6 gusting 14 12.8
2019-Dec-10 08:16 190 5 gusting 16 12.8
2019-Dec-10 08:00 190 3 gusting 13 12.8
2019-Dec-10 07:46 190 5 gusting 11 12.8
2019-Dec-10 07:30 190 3 gusting 12 12.8
2019-Dec-10 07:15 190 4 gusting 13 12.8
2019-Dec-10 07:00 190 2 gusting 12 12.8
2019-Dec-10 06:45 190 5 gusting 12 13.3
2019-Dec-10 06:30 190 4 gusting 12 13.3
2019-Dec-10 06:15 190 5 gusting 13 13.3
2019-Dec-10 06:00 190 6 gusting 13 13.3
2019-Dec-10 05:45 190 5 gusting 14 13.3
2019-Dec-10 05:30 190 6 gusting 16 13.3
2019-Dec-10 05:16 190 6 gusting 13 13.9
2019-Dec-10 05:01 190 6 gusting 16 13.9
2019-Dec-10 04:47 190 8 gusting 17 14.4
2019-Dec-10 04:31 190 6 gusting 18 14.4
2019-Dec-10 04:17 190 6 gusting 19 15.0
2019-Dec-10 04:02 190 7 gusting 18 15.0
2019-Dec-10 03:46 190 5 gusting 18 15.0
2019-Dec-10 03:32 190 8 gusting 25 15.6
2019-Dec-10 03:16 190 5 gusting 19 15.0
2019-Dec-10 03:01 190 6 gusting 15 15.0
2019-Dec-10 02:47 190 3 gusting 12 15.0
2019-Dec-10 02:31 190 4 gusting 13 15.0
2019-Dec-10 02:17 190 5 gusting 16 14.4
2019-Dec-10 02:01 190 3 gusting 11 14.4
2019-Dec-10 01:46 190 2 gusting 9 14.4
2019-Dec-10 01:30 190 3 gusting 10 14.4
2019-Dec-10 01:15 190 4 gusting 13 13.9
2019-Dec-10 01:00 190 1 gusting 6 13.9
2019-Dec-10 00:45 190 1 gusting 6 13.9
2019-Dec-10 00:30 190 0 gusting 6 13.3
2019-Dec-10 00:15 190 1 gusting 6 13.3
2019-Dec-10 00:00 190 1 gusting 6 13.3
2019-Dec-09 23:45 190 0 gusting 6 13.3
2019-Dec-09 23:30 190 1 gusting 9 13.3
2019-Dec-09 23:15 190 2 gusting 12 13.3
2019-Dec-09 23:00 190 4 gusting 9 13.3
2019-Dec-09 22:45 190 4 gusting 12 13.3
2019-Dec-09 22:30 190 1 gusting 9 13.3
2019-Dec-09 22:15 190 3 gusting 12 13.3
2019-Dec-09 22:02 190 4 gusting 15 13.3
2019-Dec-09 21:46 190 4 gusting 12 12.8
2019-Dec-09 21:34 190 3 gusting 10 12.8
2019-Dec-09 21:16 190 4 gusting 11 12.8
2019-Dec-09 21:02 190 1 gusting 6 12.2
2019-Dec-09 20:47 190 1 gusting 9 12.2
2019-Dec-09 20:31 190 3 gusting 9 12.2
2019-Dec-09 20:15 190 2 gusting 11 12.8
2019-Dec-09 20:01 190 0 gusting 11 12.2
2019-Dec-09 19:45 190 4 gusting 10 12.2
2019-Dec-09 19:30 190 3 gusting 9 11.7
2019-Dec-09 19:16 190 0 gusting 6 11.1
2019-Dec-09 19:01 190 11.7
2019-Dec-09 18:45 190 11.7
2019-Dec-09 18:30 190 1 gusting 8 12.2
2019-Dec-09 18:15 190 3 gusting 10 12.8
2019-Dec-09 18:01 190 2 gusting 9 12.8
2019-Dec-09 17:46 190 2 gusting 10 12.2
2019-Dec-09 17:15 190 12.2
2019-Dec-09 17:00 190 2 gusting 8 11.7
2019-Dec-09 16:45 190 0 gusting 5 11.7
2019-Dec-09 16:30 190 1 gusting 5 11.7
2019-Dec-09 16:15 190 11.7
2019-Dec-09 16:00 190 12.2
2019-Dec-09 15:45 190 12.2
2019-Dec-09 15:30 190 11.7
2019-Dec-09 15:15 190 0 gusting 6 11.7
2019-Dec-09 15:02 190 0 gusting 5 11.1
2019-Dec-09 14:48 190 10.6
2019-Dec-09 14:31 190 10.6
2019-Dec-09 14:17 190 10.0
2019-Dec-09 14:03 190 10.6
2019-Dec-09 13:46 190 11.1
2019-Dec-09 13:32 190 11.7
2019-Dec-09 13:17 190 1 gusting 5 11.7
2019-Dec-09 13:01 190 0 gusting 4 11.7
2019-Dec-09 12:46 190 1 gusting 6 11.7
2019-Dec-09 12:32 190 11.1
2019-Dec-09 12:16 190 10.6
2019-Dec-09 12:02 190 10.6
2019-Dec-09 11:46 190 0 gusting 2 10.6
2019-Dec-09 11:31 190 0 gusting 6 11.1
2019-Dec-09 11:16 190 10.6
2019-Dec-09 11:00 190 10.0
2019-Dec-09 10:46 190 10.0
2019-Dec-09 10:31 190 10.6
2019-Dec-09 10:15 190 10.6
2019-Dec-09 10:00 190 10.6
2019-Dec-09 09:45 190 10.0
2019-Dec-09 09:31 190 10.6
2019-Dec-09 09:15 190 10.6
2019-Dec-09 09:00 190 10.6
2019-Dec-09 08:45 190 10.0
2019-Dec-09 08:30 190 10.0
2019-Dec-09 08:15 190 0 gusting 6 10.0
2019-Dec-09 08:00 190 10.0
2019-Dec-09 07:47 190 1 gusting 12 10.0
2019-Dec-09 07:33 190 2 gusting 6 9.4
2019-Dec-09 07:17 190 3 gusting 10 9.4
2019-Dec-09 07:02 190 1 gusting 4 8.9
2019-Dec-09 06:46 190 0 gusting 6 8.9
2019-Dec-09 06:31 190 0 gusting 7 8.3
2019-Dec-09 06:16 190 1 gusting 6 8.3
2019-Dec-09 06:01 190 0 gusting 5 8.3
2019-Dec-09 05:46 190 0 gusting 7 8.3
2019-Dec-09 05:31 190 2 gusting 6 8.3
2019-Dec-09 05:16 190 2 gusting 8 8.3
2019-Dec-09 05:00 190 2 gusting 9 8.3
2019-Dec-09 04:45 190 1 gusting 6 7.8
2019-Dec-09 04:30 190 3 gusting 7 7.8
2019-Dec-09 04:15 190 0 gusting 6 7.8
2019-Dec-09 04:00 190 2 gusting 7 7.8
2019-Dec-09 03:46 190 2 gusting 9 7.2
2019-Dec-09 03:30 190 2 gusting 9 7.2
2019-Dec-09 03:15 190 2 gusting 11 7.2
2019-Dec-09 03:00 190 1 gusting 6 7.2
2019-Dec-09 02:45 190 3 gusting 8 7.2
2019-Dec-09 02:30 190 3 gusting 11 7.2
2019-Dec-09 02:15 190 1 gusting 6 6.7
2019-Dec-09 02:00 190 2 gusting 13 6.7